Time;durP1;ratioP1;P1;durP2;ratioP2;P2;SDS_P1;SDS_P2;PMS_P1;PMS_P2;Temp;Humidity;BMP_temperature;BMP_pressure;BME280_temperature;BME280_humidity;BME280_pressure;Samples;Min_cycle;Max_cycle;Signal;HPM_P1;HPM_P2
2023/08/28 00:01:27;;;;;;;2.63;1.23;;;;;;;;;;7389044;19;20003;-70
2023/08/28 00:03:53;;;;;;;1.77;1.10;;;;;;;;;;7365826;19;20010;-71
2023/08/28 00:06:19;;;;;;;1.20;1.10;;;;;;;;;;7367195;19;20006;-70
2023/08/28 00:08:44;;;;;;;1.15;1.05;;;;;;;;;;7369416;19;20858;-70
2023/08/28 00:11:10;;;;;;;4.55;1.40;;;;;;;;;;7370873;19;20089;-70
2023/08/28 00:13:35;;;;;;;2.90;1.30;;;;;;;;;;7389038;19;20048;-71
2023/08/28 00:16:01;;;;;;;2.10;1.40;;;;;;;;;;7366398;19;20034;-69
2023/08/28 00:18:26;;;;;;;2.53;1.27;;;;;;;;;;7368056;19;20010;-69
2023/08/28 00:20:52;;;;;;;1.42;1.15;;;;;;;;;;7367626;19;20660;-70
2023/08/28 00:23:17;;;;;;;2.88;1.50;;;;;;;;;;7367245;19;20368;-69
2023/08/28 00:25:43;;;;;;;1.92;1.30;;;;;;;;;;7384464;19;20045;-70
2023/08/28 00:28:08;;;;;;;3.15;1.42;;;;;;;;;;7366259;19;20115;-70
2023/08/28 00:30:33;;;;;;;2.25;1.15;;;;;;;;;;7367247;19;20007;-70
2023/08/28 00:32:59;;;;;;;3.33;1.20;;;;;;;;;;7367563;19;20436;-70
2023/08/28 00:35:24;;;;;;;2.70;1.42;;;;;;;;;;7364305;19;20003;-70
2023/08/28 00:37:49;;;;;;;1.33;1.23;;;;;;;;;;7367663;19;20003;-70
2023/08/28 00:40:16;;;;;;;1.38;1.20;;;;;;;;;;7389810;19;20006;-70
2023/08/28 00:42:42;;;;;;;1.42;1.30;;;;;;;;;;7368026;19;20030;-71
2023/08/28 00:45:07;;;;;;;2.55;1.40;;;;;;;;;;7366105;19;20014;-70
2023/08/28 00:47:34;;;;;;;1.40;1.30;;;;;;;;;;7368072;19;20074;-71
2023/08/28 00:50:00;;;;;;;2.15;1.35;;;;;;;;;;7368119;19;20037;-71
2023/08/28 00:52:25;;;;;;;4.70;1.50;;;;;;;;;;7388372;19;19998;-70
2023/08/28 00:54:51;;;;;;;1.58;1.38;;;;;;;;;;7363427;19;20006;-70
2023/08/28 00:57:17;;;;;;;3.10;1.40;;;;;;;;;;7365533;19;20023;-71
2023/08/28 00:59:43;;;;;;;3.35;1.48;;;;;;;;;;7366546;19;20409;-71
2023/08/28 01:02:09;;;;;;;2.90;1.65;;;;;;;;;;7365608;19;20011;-71
2023/08/28 01:04:34;;;;;;;2.85;1.60;;;;;;;;;;7384671;19;20008;-71
2023/08/28 01:07:16;;;;;;;6.13;1.80;;;;;;;;;;7365713;19;20006;-71
2023/08/28 01:10:01;;;;;;;2.05;1.40;;;;;;;;;;7365716;19;20007;-71
2023/08/28 01:12:53;;;;;;;2.67;1.50;;;;;;;;;;7365114;19;20513;-70
2023/08/28 01:15:23;;;;;;;2.13;1.27;;;;;;;;;;7364641;19;20013;-70
2023/08/28 01:17:55;;;;;;;3.28;1.67;;;;;;;;;;7366091;19;20080;-70
2023/08/28 01:20:22;;;;;;;5.90;1.70;;;;;;;;;;7365259;19;20099;-70
2023/08/28 01:22:56;;;;;;;3.10;1.70;;;;;;;;;;7366647;19;19999;-71
2023/08/28 01:25:23;;;;;;;3.45;1.63;;;;;;;;;;7383496;19;20002;-71
2023/08/28 01:27:49;;;;;;;2.80;1.48;;;;;;;;;;7363278;19;20003;-71
2023/08/28 01:30:16;;;;;;;2.38;1.70;;;;;;;;;;7365450;19;20504;-71
2023/08/28 01:32:44;;;;;;;2.45;1.45;;;;;;;;;;7364897;19;20390;-70
2023/08/28 01:35:15;;;;;;;3.00;1.40;;;;;;;;;;7364204;19;20006;-70
2023/08/28 01:38:05;;;;;;;3.58;1.60;;;;;;;;;;7392909;19;20010;-71
2023/08/28 01:40:48;;;;;;;3.20;1.85;;;;;;;;;;7371906;19;20006;-71
2023/08/28 01:43:18;;;;;;;2.70;1.58;;;;;;;;;;7372184;19;20480;-71
2023/08/28 01:45:43;;;;;;;3.47;1.50;;;;;;;;;;7370575;19;20007;-71
2023/08/28 01:48:09;;;;;;;3.05;1.30;;;;;;;;;;7372958;19;20013;-72
2023/08/28 01:50:34;;;;;;;1.50;1.40;;;;;;;;;;7372083;19;20041;-71
2023/08/28 01:53:00;;;;;;;1.83;1.60;;;;;;;;;;7372372;19;20031;-72
2023/08/28 01:55:59;;;;;;;2.45;1.40;;;;;;;;;;7390617;19;20002;-71
2023/08/28 01:58:24;;;;;;;3.08;1.50;;;;;;;;;;7372794;19;20428;-70
2023/08/28 02:00:49;;;;;;;2.03;1.60;;;;;;;;;;7370836;19;20037;-70
2023/08/28 02:03:15;;;;;;;3.58;1.65;;;;;;;;;;7372446;19;20011;-70
2023/08/28 02:05:40;;;;;;;2.13;1.40;;;;;;;;;;7369000;19;20116;-70
2023/08/28 02:08:05;;;;;;;2.35;1.60;;;;;;;;;;7370614;19;20008;-69
2023/08/28 02:10:31;;;;;;;4.13;1.40;;;;;;;;;;7393781;19;20896;-69
2023/08/28 02:12:56;;;;;;;1.95;1.33;;;;;;;;;;7370682;19;20024;-69
2023/08/28 02:15:22;;;;;;;1.65;1.50;;;;;;;;;;7368517;19;20078;-70
2023/08/28 02:17:47;;;;;;;2.60;1.40;;;;;;;;;;7371132;19;20525;-71
2023/08/28 02:20:12;;;;;;;1.70;1.30;;;;;;;;;;7371452;19;20013;-69
2023/08/28 02:22:38;;;;;;;2.22;1.48;;;;;;;;;;7393106;19;20014;-69
2023/08/28 02:25:05;;;;;;;4.60;1.58;;;;;;;;;;7367911;19;20043;-70
2023/08/28 02:27:31;;;;;;;2.92;1.80;;;;;;;;;;7369219;19;20100;-70
2023/08/28 02:29:56;;;;;;;1.60;1.20;;;;;;;;;;7370464;19;20505;-70
2023/08/28 02:32:23;;;;;;;2.25;1.50;;;;;;;;;;7371160;19;20038;-70
2023/08/28 02:34:48;;;;;;;2.85;1.42;;;;;;;;;;7366618;19;20510;-70
2023/08/28 02:37:14;;;;;;;2.85;1.70;;;;;;;;;;7392793;19;20003;-70
2023/08/28 02:39:39;;;;;;;2.17;1.30;;;;;;;;;;7370059;19;20074;-71
2023/08/28 02:42:04;;;;;;;2.20;1.33;;;;;;;;;;7370334;19;20164;-70
2023/08/28 02:44:30;;;;;;;3.13;1.08;;;;;;;;;;7369345;19;20015;-70
2023/08/28 02:46:55;;;;;;;1.27;1.17;;;;;;;;;;7369803;19;20006;-71
2023/08/28 02:49:20;;;;;;;2.05;1.23;;;;;;;;;;7390469;19;20002;-71
2023/08/28 02:51:46;;;;;;;1.58;1.30;;;;;;;;;;7370010;19;20110;-70
2023/08/28 02:54:11;;;;;;;2.80;1.40;;;;;;;;;;7369087;19;20010;-70
2023/08/28 02:56:40;;;;;;;1.92;1.30;;;;;;;;;;7368225;19;20114;-69
2023/08/28 02:59:05;;;;;;;2.72;1.63;;;;;;;;;;7370287;19;20017;-70
2023/08/28 03:01:37;;;;;;;2.33;1.50;;;;;;;;;;7389774;19;20329;-71
2023/08/28 03:04:06;;;;;;;2.97;1.38;;;;;;;;;;7371247;19;20030;-71
2023/08/28 03:06:37;;;;;;;1.90;1.33;;;;;;;;;;7369198;19;20458;-70
2023/08/28 03:09:04;;;;;;;2.80;1.40;;;;;;;;;;7368592;19;20007;-70
2023/08/28 03:11:29;;;;;;;2.30;1.30;;;;;;;;;;7369232;19;20010;-70
2023/08/28 03:13:55;;;;;;;1.73;1.50;;;;;;;;;;7368365;19;20017;-71
2023/08/28 03:16:20;;;;;;;2.40;1.50;;;;;;;;;;7389159;19;20027;-70
2023/08/28 03:18:46;;;;;;;2.13;1.40;;;;;;;;;;7368370;19;20784;-70
2023/08/28 03:21:12;;;;;;;2.72;1.40;;;;;;;;;;7368672;19;20010;-71
2023/08/28 03:23:37;;;;;;;2.40;1.50;;;;;;;;;;7368168;19;20491;-71
2023/08/28 03:26:03;;;;;;;4.43;1.58;;;;;;;;;;7368982;19;19998;-70
2023/08/28 03:28:29;;;;;;;2.40;1.35;;;;;;;;;;7389745;19;20428;-70
2023/08/28 03:30:58;;;;;;;1.70;1.55;;;;;;;;;;7369023;19;20002;-70
2023/08/28 03:33:24;;;;;;;3.15;1.75;;;;;;;;;;7368845;19;20030;-71
2023/08/28 03:35:49;;;;;;;2.03;1.48;;;;;;;;;;7368237;19;20412;-70
2023/08/28 03:38:14;;;;;;;2.60;1.70;;;;;;;;;;7369793;19;20479;-71
2023/08/28 03:40:40;;;;;;;3.03;1.65;;;;;;;;;;7390517;19;20456;-70
2023/08/28 03:43:05;;;;;;;2.95;1.50;;;;;;;;;;7371647;19;20010;-71
2023/08/28 03:45:30;;;;;;;1.80;1.40;;;;;;;;;;7368523;19;20480;-71
2023/08/28 03:47:56;;;;;;;3.13;1.73;;;;;;;;;;7373351;19;20018;-71
2023/08/28 03:50:22;;;;;;;2.58;1.60;;;;;;;;;;7369318;19;20017;-70
2023/08/28 03:52:47;;;;;;;2.47;1.75;;;;;;;;;;7372508;19;20003;-70
2023/08/28 03:55:12;;;;;;;1.85;1.40;;;;;;;;;;7386736;19;20009;-70
2023/08/28 03:57:38;;;;;;;4.00;1.60;;;;;;;;;;7367260;19;20488;-70
2023/08/28 04:00:07;;;;;;;3.67;1.65;;;;;;;;;;7367521;19;20021;-71
2023/08/28 04:02:34;;;;;;;2.33;1.60;;;;;;;;;;7365620;19;20015;-70
2023/08/28 04:05:02;;;;;;;5.15;1.77;;;;;;;;;;7365404;19;20031;-71
2023/08/28 04:07:28;;;;;;;3.13;1.77;;;;;;;;;;7387397;19;20473;-71
2023/08/28 04:09:53;;;;;;;3.10;1.73;;;;;;;;;;7367870;19;20014;-70
2023/08/28 04:12:18;;;;;;;4.40;1.80;;;;;;;;;;7367823;19;20010;-70
2023/08/28 04:14:44;;;;;;;3.33;1.90;;;;;;;;;;7365555;19;20007;-71
2023/08/28 04:17:09;;;;;;;2.72;1.80;;;;;;;;;;7367457;19;20023;-71
2023/08/28 04:19:35;;;;;;;3.22;1.80;;;;;;;;;;7389751;19;20003;-71
2023/08/28 04:22:01;;;;;;;5.82;2.15;;;;;;;;;;7366830;19;20496;-70
2023/08/28 04:24:26;;;;;;;4.07;2.03;;;;;;;;;;7364641;19;20021;-71
2023/08/28 04:26:51;;;;;;;3.30;1.70;;;;;;;;;;7366932;19;20075;-71
2023/08/28 04:29:17;;;;;;;3.47;1.80;;;;;;;;;;7368488;19;20014;-71
2023/08/28 04:31:42;;;;;;;4.47;2.05;;;;;;;;;;7391604;19;20011;-71
2023/08/28 04:34:07;;;;;;;4.25;1.92;;;;;;;;;;7366178;19;20021;-70
2023/08/28 04:36:33;;;;;;;5.40;2.13;;;;;;;;;;7365573;19;20046;-70
2023/08/28 04:38:58;;;;;;;4.00;1.90;;;;;;;;;;7366713;19;20014;-70
2023/08/28 04:41:23;;;;;;;2.88;1.70;;;;;;;;;;7365402;19;20018;-71
2023/08/28 04:43:48;;;;;;;2.28;1.60;;;;;;;;;;7364846;19;20009;-71
2023/08/28 04:46:14;;;;;;;3.42;2.00;;;;;;;;;;7384127;19;20359;-70
2023/08/28 04:48:39;;;;;;;4.55;2.00;;;;;;;;;;7367872;19;20014;-70
2023/08/28 04:51:05;;;;;;;4.38;2.20;;;;;;;;;;7367593;19;20014;-70
2023/08/28 04:53:30;;;;;;;3.92;2.00;;;;;;;;;;7366759;19;20009;-70
2023/08/28 04:55:56;;;;;;;2.50;1.60;;;;;;;;;;7366843;19;20003;-70
2023/08/28 04:58:21;;;;;;;3.28;1.95;;;;;;;;;;7387033;19;20051;-69
2023/08/28 05:00:46;;;;;;;4.13;2.00;;;;;;;;;;7365121;19;20095;-69
2023/08/28 05:03:12;;;;;;;4.07;1.73;;;;;;;;;;7367367;19;20032;-69
2023/08/28 05:05:37;;;;;;;2.55;1.70;;;;;;;;;;7365585;19;20003;-70
2023/08/28 05:08:05;;;;;;;3.55;1.88;;;;;;;;;;7369727;19;20003;-70
2023/08/28 05:10:30;;;;;;;3.33;1.73;;;;;;;;;;7391829;19;20090;-69
2023/08/28 05:12:56;;;;;;;10.27;1.92;;;;;;;;;;7370040;19;20006;-71
2023/08/28 05:15:21;;;;;;;3.22;2.05;;;;;;;;;;7371866;19;20443;-71
2023/08/28 05:17:47;;;;;;;3.25;1.90;;;;;;;;;;7374185;19;20007;-71
2023/08/28 05:20:13;;;;;;;5.47;2.25;;;;;;;;;;7374640;19;20018;-69
2023/08/28 05:22:38;;;;;;;3.58;2.20;;;;;;;;;;7395754;19;20003;-71
2023/08/28 05:25:04;;;;;;;2.88;1.90;;;;;;;;;;7370086;19;20022;-70
2023/08/28 05:27:29;;;;;;;4.07;2.22;;;;;;;;;;7372735;19;20540;-68
2023/08/28 05:29:55;;;;;;;2.65;1.80;;;;;;;;;;7374789;19;20014;-70
2023/08/28 05:32:20;;;;;;;4.85;2.13;;;;;;;;;;7374944;19;20491;-70
2023/08/28 05:34:45;;;;;;;3.45;2.20;;;;;;;;;;7389357;19;20021;-71
2023/08/28 05:37:11;;;;;;;4.40;2.15;;;;;;;;;;7380951;19;20003;-70
2023/08/28 05:39:36;;;;;;;3.72;2.00;;;;;;;;;;7375038;19;20003;-70
2023/08/28 05:42:02;;;;;;;4.65;2.35;;;;;;;;;;7375391;19;20015;-70
2023/08/28 05:44:27;;;;;;;4.65;2.20;;;;;;;;;;7373070;19;20385;-70
2023/08/28 05:46:53;;;;;;;7.07;2.28;;;;;;;;;;7370494;19;20010;-70
2023/08/28 05:49:18;;;;;;;4.43;2.00;;;;;;;;;;7394058;19;19995;-70
2023/08/28 05:51:43;;;;;;;3.75;2.22;;;;;;;;;;7365891;19;20018;-70
2023/08/28 05:54:09;;;;;;;4.18;2.10;;;;;;;;;;7370320;19;20105;-69
2023/08/28 05:56:34;;;;;;;4.47;2.10;;;;;;;;;;7372645;19;20036;-70
2023/08/28 05:59:00;;;;;;;4.50;2.40;;;;;;;;;;7374514;19;20006;-70
2023/08/28 06:01:25;;;;;;;3.53;2.00;;;;;;;;;;7391581;19;19999;-70
2023/08/28 06:03:55;;;;;;;3.75;2.20;;;;;;;;;;7371053;19;20010;-70
2023/08/28 06:06:21;;;;;;;3.95;2.05;;;;;;;;;;7370618;19;20024;-69
2023/08/28 06:08:47;;;;;;;4.15;2.13;;;;;;;;;;7370272;19;20011;-70
2023/08/28 06:11:12;;;;;;;5.22;2.25;;;;;;;;;;7372577;19;20500;-70
2023/08/28 06:13:37;;;;;;;4.15;2.35;;;;;;;;;;7393045;19;20010;-70
2023/08/28 06:16:03;;;;;;;5.47;2.20;;;;;;;;;;7370384;19;20840;-70
2023/08/28 06:18:28;;;;;;;8.23;2.50;;;;;;;;;;7370489;19;20422;-69
2023/08/28 06:20:54;;;;;;;4.50;2.50;;;;;;;;;;7371971;19;20002;-70
2023/08/28 06:23:19;;;;;;;6.45;2.20;;;;;;;;;;7371266;19;20009;-70
2023/08/28 06:25:46;;;;;;;6.35;2.55;;;;;;;;;;7391382;19;20359;-70
2023/08/28 06:28:12;;;;;;;8.52;2.55;;;;;;;;;;7369642;19;20009;-70
2023/08/28 06:30:37;;;;;;;5.03;2.28;;;;;;;;;;7371369;19;20341;-69
2023/08/28 06:33:04;;;;;;;4.72;2.30;;;;;;;;;;7370890;19;20071;-70
2023/08/28 06:35:30;;;;;;;6.70;2.60;;;;;;;;;;7368844;19;20555;-71
2023/08/28 06:37:55;;;;;;;5.65;2.42;;;;;;;;;;7370742;19;20074;-70
2023/08/28 06:40:20;;;;;;;7.20;2.47;;;;;;;;;;7391870;19;20006;-70
2023/08/28 06:42:46;;;;;;;5.03;2.50;;;;;;;;;;7370306;19;20488;-69
2023/08/28 06:45:12;;;;;;;4.10;2.42;;;;;;;;;;7370154;19;20340;-70
2023/08/28 06:47:37;;;;;;;5.63;2.33;;;;;;;;;;7369874;19;20011;-70
2023/08/28 06:50:02;;;;;;;6.32;2.60;;;;;;;;;;7371400;19;19998;-70
2023/08/28 06:52:28;;;;;;;5.47;2.63;;;;;;;;;;7392303;19;20449;-70
2023/08/28 06:54:53;;;;;;;5.78;2.88;;;;;;;;;;7366774;19;20437;-70
2023/08/28 06:57:19;;;;;;;4.80;2.72;;;;;;;;;;7370494;19;20023;-70
2023/08/28 06:59:45;;;;;;;6.15;3.08;;;;;;;;;;7369616;19;20037;-71
2023/08/28 07:02:10;;;;;;;4.30;2.60;;;;;;;;;;7368247;19;20006;-70
2023/08/28 07:04:35;;;;;;;5.22;2.90;;;;;;;;;;7388980;19;20023;-72
2023/08/28 07:07:00;;;;;;;6.57;3.17;;;;;;;;;;7369490;19;20002;-70
2023/08/28 07:09:26;;;;;;;7.13;3.00;;;;;;;;;;7370701;19;20491;-71
2023/08/28 07:11:51;;;;;;;6.07;2.80;;;;;;;;;;7370236;19;20014;-74
2023/08/28 07:14:16;;;;;;;5.93;2.67;;;;;;;;;;7370228;19;20113;-70
2023/08/28 07:16:42;;;;;;;5.65;2.55;;;;;;;;;;7391141;19;20032;-70
2023/08/28 07:19:07;;;;;;;4.20;2.38;;;;;;;;;;7369963;19;20398;-70
2023/08/28 07:21:32;;;;;;;9.55;3.08;;;;;;;;;;7369354;19;20341;-70
2023/08/28 07:23:58;;;;;;;5.85;2.53;;;;;;;;;;7369554;19;20511;-70
2023/08/28 07:26:23;;;;;;;8.90;3.03;;;;;;;;;;7370353;19;20365;-70
2023/08/28 07:28:48;;;;;;;6.45;2.75;;;;;;;;;;7366722;19;20013;-71
2023/08/28 07:31:14;;;;;;;7.95;2.72;;;;;;;;;;7390965;19;19998;-71
2023/08/28 07:33:40;;;;;;;5.15;2.58;;;;;;;;;;7369262;19;20447;-70
2023/08/28 07:36:06;;;;;;;3.85;2.22;;;;;;;;;;7368025;19;20006;-72
2023/08/28 07:38:31;;;;;;;4.25;2.00;;;;;;;;;;7369182;19;20014;-72
2023/08/28 07:40:56;;;;;;;6.30;2.20;;;;;;;;;;7368865;19;19995;-70
2023/08/28 07:43:21;;;;;;;5.28;2.15;;;;;;;;;;7390067;19;20397;-69
2023/08/28 07:45:47;;;;;;;3.67;1.88;;;;;;;;;;7367336;19;20501;-71
2023/08/28 07:48:12;;;;;;;4.97;2.25;;;;;;;;;;7366962;19;20048;-69
2023/08/28 07:50:38;;;;;;;2.28;1.70;;;;;;;;;;7367991;19;20581;-71
2023/08/28 07:53:03;;;;;;;5.25;2.22;;;;;;;;;;7367027;19;20010;-71
2023/08/28 07:55:30;;;;;;;7.10;2.30;;;;;;;;;;7385633;19;20018;-70
2023/08/28 07:57:55;;;;;;;5.28;1.90;;;;;;;;;;7371216;19;20017;-71
2023/08/28 08:00:21;;;;;;;6.30;2.58;;;;;;;;;;7370874;19;20547;-71
2023/08/28 08:02:49;;;;;;;4.78;2.20;;;;;;;;;;7368404;19;20062;-71
2023/08/28 08:05:14;;;;;;;4.50;2.35;;;;;;;;;;7366870;19;19998;-70
2023/08/28 08:07:39;;;;;;;5.45;2.13;;;;;;;;;;7389606;19;20366;-71
2023/08/28 08:10:10;;;;;;;8.52;2.30;;;;;;;;;;7369841;19;20038;-70
2023/08/28 08:12:35;;;;;;;6.35;2.63;;;;;;;;;;7368635;19;20002;-70
2023/08/28 08:15:03;;;;;;;5.20;2.40;;;;;;;;;;7366083;19;20018;-71
2023/08/28 08:17:28;;;;;;;5.10;2.47;;;;;;;;;;7366978;19;20023;-72
2023/08/28 08:19:54;;;;;;;9.30;2.78;;;;;;;;;;7366868;19;20009;-70
2023/08/28 08:22:19;;;;;;;11.95;2.75;;;;;;;;;;7388657;19;19998;-71
2023/08/28 08:24:44;;;;;;;4.55;2.42;;;;;;;;;;7364845;19;20010;-70
2023/08/28 08:27:10;;;;;;;8.23;2.53;;;;;;;;;;7367387;19;20013;-70
2023/08/28 08:29:35;;;;;;;5.25;2.55;;;;;;;;;;7368682;19;20583;-70
2023/08/28 08:32:00;;;;;;;6.40;2.80;;;;;;;;;;7367658;19;20018;-71
2023/08/28 08:34:26;;;;;;;5.47;2.30;;;;;;;;;;7387199;19;20074;-70
2023/08/28 08:36:51;;;;;;;4.85;1.98;;;;;;;;;;7366960;19;20014;-70
2023/08/28 08:39:16;;;;;;;5.78;2.08;;;;;;;;;;7367260;19;20065;-70
2023/08/28 08:41:42;;;;;;;4.25;2.33;;;;;;;;;;7366354;19;20051;-70
2023/08/28 08:44:08;;;;;;;4.60;2.28;;;;;;;;;;7366678;19;20044;-70
2023/08/28 08:46:34;;;;;;;5.38;2.30;;;;;;;;;;7386780;19;20010;-71
2023/08/28 08:49:00;;;;;;;6.30;2.15;;;;;;;;;;7371403;19;20011;-71
2023/08/28 08:51:30;;;;;;;4.40;2.20;;;;;;;;;;7380866;19;20063;-71
2023/08/28 08:54:06;;;;;;;4.95;2.38;;;;;;;;;;7376299;19;20019;-70
2023/08/28 08:56:33;;;;;;;8.35;2.45;;;;;;;;;;7373379;19;20402;-70
2023/08/28 08:58:59;;;;;;;3.65;2.33;;;;;;;;;;7374056;19;20009;-70
2023/08/28 09:01:26;;;;;;;4.15;2.33;;;;;;;;;;7394608;19;20014;-70
2023/08/28 09:03:52;;;;;;;4.43;2.42;;;;;;;;;;7372402;19;20051;-70
2023/08/28 09:06:17;;;;;;;4.10;2.20;;;;;;;;;;7372862;19;20488;-71
2023/08/28 09:08:43;;;;;;;4.30;2.47;;;;;;;;;;7373527;19;20037;-71
2023/08/28 09:11:08;;;;;;;6.20;2.40;;;;;;;;;;7374050;19;20483;-74
2023/08/28 09:13:43;;;;;;;5.25;2.70;;;;;;;;;;7394491;19;19999;-70
2023/08/28 09:16:09;;;;;;;4.80;2.45;;;;;;;;;;7373009;19;19999;-70
2023/08/28 09:18:35;;;;;;;6.63;2.40;;;;;;;;;;7373833;19;20026;-70
2023/08/28 09:21:13;;;;;;;5.22;2.17;;;;;;;;;;7373929;19;20017;-70
2023/08/28 09:23:46;;;;;;;3.88;2.28;;;;;;;;;;7373517;19;20725;-72
2023/08/28 09:26:19;;;;;;;3.83;2.35;;;;;;;;;;7372425;19;20010;-72
2023/08/28 09:29:08;;;;;;;3.13;2.00;;;;;;;;;;7392381;19;20007;-69
2023/08/28 09:31:35;;;;;;;2.95;2.10;;;;;;;;;;7373521;19;20010;-70
2023/08/28 09:34:03;;;;;;;6.70;2.05;;;;;;;;;;7371653;19;20050;-70
2023/08/28 09:36:29;;;;;;;3.45;2.20;;;;;;;;;;7372403;19;20007;-71
2023/08/28 09:39:01;;;;;;;4.13;2.30;;;;;;;;;;7373305;19;20013;-70
2023/08/28 09:41:38;;;;;;;5.47;2.25;;;;;;;;;;7373504;19;20027;-70
2023/08/28 09:44:04;;;;;;;5.65;2.55;;;;;;;;;;7371255;19;20691;-70
2023/08/28 09:46:29;;;;;;;8.15;2.22;;;;;;;;;;7393677;19;20011;-71
2023/08/28 09:48:55;;;;;;;7.47;2.50;;;;;;;;;;7369255;19;20480;-70
2023/08/28 09:51:20;;;;;;;4.75;2.17;;;;;;;;;;7372095;19;20380;-70
2023/08/28 09:53:58;;;;;;;6.38;2.40;;;;;;;;;;7371803;19;20014;-70
2023/08/28 09:56:30;;;;;;;5.07;2.40;;;;;;;;;;7370714;19;20568;-70
2023/08/28 09:58:57;;;;;;;3.83;1.90;;;;;;;;;;7370682;19;20316;-70
2023/08/28 10:01:23;;;;;;;6.00;2.40;;;;;;;;;;7391511;19;20002;-70
2023/08/28 10:03:48;;;;;;;7.88;2.50;;;;;;;;;;7370040;19;20066;-70
2023/08/28 10:06:14;;;;;;;5.10;2.30;;;;;;;;;;7371449;19;20476;-70
2023/08/28 10:08:41;;;;;;;5.07;2.40;;;;;;;;;;7371816;19;20010;-70
2023/08/28 10:11:08;;;;;;;4.55;2.17;;;;;;;;;;7372440;19;20037;-71
2023/08/28 10:13:34;;;;;;;4.75;2.50;;;;;;;;;;7391953;19;20597;-70
2023/08/28 10:16:09;;;;;;;4.70;2.30;;;;;;;;;;7370277;19;20002;-71
2023/08/28 10:18:37;;;;;;;4.10;2.30;;;;;;;;;;7378773;19;20030;-71
2023/08/28 10:21:02;;;;;;;7.35;2.50;;;;;;;;;;7372807;19;20626;-70
2023/08/28 10:23:29;;;;;;;4.15;2.38;;;;;;;;;;7370436;19;20070;-71
2023/08/28 10:25:56;;;;;;;4.00;2.35;;;;;;;;;;7369649;19;20005;-70
2023/08/28 10:28:24;;;;;;;6.28;2.63;;;;;;;;;;7391916;19;20009;-70
2023/08/28 10:30:50;;;;;;;6.53;2.60;;;;;;;;;;7371247;19;20010;-70
2023/08/28 10:33:18;;;;;;;3.67;2.30;;;;;;;;;;7371469;19;20473;-70
2023/08/28 10:35:44;;;;;;;4.65;2.67;;;;;;;;;;7368960;19;20086;-71
2023/08/28 10:38:11;;;;;;;5.40;2.60;;;;;;;;;;7371932;19;20031;-71
2023/08/28 10:40:36;;;;;;;6.47;2.75;;;;;;;;;;7393391;19;20758;-69
2023/08/28 10:43:03;;;;;;;5.88;2.78;;;;;;;;;;7370486;19;20016;-69
2023/08/28 10:45:29;;;;;;;4.65;2.53;;;;;;;;;;7369112;19;20043;-70
2023/08/28 10:47:54;;;;;;;4.93;2.63;;;;;;;;;;7368471;19;20586;-70
2023/08/28 10:50:19;;;;;;;9.85;2.70;;;;;;;;;;7369296;19;20013;-70
2023/08/28 10:52:46;;;;;;;9.07;2.80;;;;;;;;;;7391875;19;20066;-70
2023/08/28 10:55:16;;;;;;;5.97;2.80;;;;;;;;;;7367590;19;20026;-70
2023/08/28 10:57:48;;;;;;;4.70;2.75;;;;;;;;;;7370659;19;20338;-70
2023/08/28 11:00:17;;;;;;;7.45;2.60;;;;;;;;;;7371061;19;20010;-70
2023/08/28 11:03:03;;;;;;;4.25;2.50;;;;;;;;;;7368526;19;20416;-69
2023/08/28 11:05:29;;;;;;;5.07;2.88;;;;;;;;;;7366246;19;20555;-70
2023/08/28 11:07:54;;;;;;;4.82;2.50;;;;;;;;;;7368639;19;20013;-70
2023/08/28 11:10:21;;;;;;;5.63;2.05;;;;;;;;;;7390470;19;20405;-70
2023/08/28 11:12:53;;;;;;;4.13;2.20;;;;;;;;;;7369574;19;20070;-70
2023/08/28 11:15:26;;;;;;;5.25;2.20;;;;;;;;;;7368720;19;20016;-71
2023/08/28 11:18:12;;;;;;;4.38;2.30;;;;;;;;;;7369964;19;20010;-71
2023/08/28 11:20:38;;;;;;;4.70;2.05;;;;;;;;;;7369401;19;20006;-72
2023/08/28 11:23:03;;;;;;;4.18;2.40;;;;;;;;;;7369516;19;20463;-71
2023/08/28 11:25:39;;;;;;;4.70;2.40;;;;;;;;;;7388535;19;19998;-71
2023/08/28 11:28:23;;;;;;;5.55;2.67;;;;;;;;;;7368181;19;20045;-71
2023/08/28 11:30:49;;;;;;;4.13;2.10;;;;;;;;;;7369089;19;20003;-71
2023/08/28 11:33:14;;;;;;;4.13;2.40;;;;;;;;;;7368307;19;20010;-71
2023/08/28 11:35:40;;;;;;;3.70;2.22;;;;;;;;;;7366993;19;20014;-69
2023/08/28 11:38:05;;;;;;;2.92;1.95;;;;;;;;;;7369480;19;20020;-71
2023/08/28 11:40:31;;;;;;;5.20;2.35;;;;;;;;;;7390521;19;20014;-71
2023/08/28 11:43:07;;;;;;;5.25;1.85;;;;;;;;;;7368943;19;20012;-71
2023/08/28 11:45:33;;;;;;;3.72;1.90;;;;;;;;;;7370587;19;20023;-70
2023/08/28 11:48:05;;;;;;;3.92;2.22;;;;;;;;;;7368970;19;19998;-70
2023/08/28 11:50:31;;;;;;;4.63;1.90;;;;;;;;;;7369140;19;20086;-70
2023/08/28 11:52:56;;;;;;;5.13;2.15;;;;;;;;;;7368059;19;20042;-70
2023/08/28 11:55:22;;;;;;;3.60;1.70;;;;;;;;;;7387386;19;19998;-71
2023/08/28 11:57:50;;;;;;;5.57;2.30;;;;;;;;;;7366435;19;20078;-69
2023/08/28 12:00:16;;;;;;;3.40;1.85;;;;;;;;;;7366668;19;20540;-69
2023/08/28 12:02:43;;;;;;;4.47;2.08;;;;;;;;;;7366013;19;20039;-71
2023/08/28 12:05:10;;;;;;;4.18;1.77;;;;;;;;;;7366316;19;20861;-69
2023/08/28 12:07:35;;;;;;;4.72;2.08;;;;;;;;;;7389249;19;20010;-70
2023/08/28 12:10:01;;;;;;;7.75;2.10;;;;;;;;;;7368467;19;20009;-70
2023/08/28 12:12:26;;;;;;;4.05;2.10;;;;;;;;;;7372814;19;20010;-69
2023/08/28 12:14:52;;;;;;;3.10;1.95;;;;;;;;;;7367458;19;20002;-70
2023/08/28 12:17:21;;;;;;;3.13;1.90;;;;;;;;;;7369713;19;20362;-71
2023/08/28 12:19:49;;;;;;;4.43;1.80;;;;;;;;;;7382106;19;20557;-71
2023/08/28 12:22:15;;;;;;;2.38;1.75;;;;;;;;;;7387634;19;19991;-70
2023/08/28 12:24:45;;;;;;;3.45;1.60;;;;;;;;;;7366166;19;20011;-69
2023/08/28 12:27:13;;;;;;;4.28;1.80;;;;;;;;;;7367898;19;20027;-69
2023/08/28 12:29:41;;;;;;;6.60;1.70;;;;;;;;;;7368803;19;19999;-70
2023/08/28 12:32:09;;;;;;;4.93;1.70;;;;;;;;;;7367742;19;20112;-70
2023/08/28 12:34:35;;;;;;;3.40;2.00;;;;;;;;;;7386679;19;20013;-70
2023/08/28 12:37:09;;;;;;;4.43;2.08;;;;;;;;;;7366877;19;20006;-70
2023/08/28 12:39:34;;;;;;;2.25;1.65;;;;;;;;;;7367666;19;20564;-69
2023/08/28 12:42:01;;;;;;;2.72;1.50;;;;;;;;;;7367106;19;20006;-69
2023/08/28 12:44:27;;;;;;;4.10;2.20;;;;;;;;;;7365018;19;20011;-70
2023/08/28 12:46:54;;;;;;;4.97;2.20;;;;;;;;;;7366767;19;20439;-70
2023/08/28 12:49:20;;;;;;;2.95;2.00;;;;;;;;;;7387699;19;20076;-69
2023/08/28 12:51:46;;;;;;;4.57;2.00;;;;;;;;;;7366427;19;20090;-73
2023/08/28 12:54:19;;;;;;;3.50;1.75;;;;;;;;;;7365345;19;20037;-70
2023/08/28 12:56:46;;;;;;;3.88;1.80;;;;;;;;;;7364585;19;20048;-69
2023/08/28 12:59:11;;;;;;;3.22;1.70;;;;;;;;;;7366475;19;20002;-70
2023/08/28 13:01:36;;;;;;;5.72;1.90;;;;;;;;;;7387335;19;20005;-70
2023/08/28 13:04:03;;;;;;;3.53;1.85;;;;;;;;;;7365048;19;20094;-71
2023/08/28 13:06:28;;;;;;;3.78;1.48;;;;;;;;;;7365673;19;20006;-70
2023/08/28 13:08:53;;;;;;;4.35;1.77;;;;;;;;;;7365821;19;20125;-70
2023/08/28 13:11:19;;;;;;;2.92;1.70;;;;;;;;;;7369488;19;20103;-71
2023/08/28 13:13:44;;;;;;;4.82;1.70;;;;;;;;;;7390629;19;20457;-70
2023/08/28 13:16:09;;;;;;;2.72;1.80;;;;;;;;;;7365121;19;20359;-70
2023/08/28 13:18:35;;;;;;;4.38;2.30;;;;;;;;;;7364858;19;20448;-70
2023/08/28 13:21:00;;;;;;;3.40;1.88;;;;;;;;;;7365501;19;20011;-70
2023/08/28 13:23:26;;;;;;;4.00;2.05;;;;;;;;;;7365642;19;20587;-70
2023/08/28 13:25:51;;;;;;;4.72;1.95;;;;;;;;;;7364636;19;20007;-71
2023/08/28 13:28:17;;;;;;;5.38;2.00;;;;;;;;;;7386331;19;19998;-70
2023/08/28 13:30:44;;;;;;;7.60;1.83;;;;;;;;;;7366254;19;20023;-71
2023/08/28 13:33:09;;;;;;;2.55;1.63;;;;;;;;;;7367540;19;20016;-70
2023/08/28 13:35:36;;;;;;;2.50;1.80;;;;;;;;;;7369777;19;20010;-69
2023/08/28 13:38:04;;;;;;;3.33;2.00;;;;;;;;;;7373216;19;20573;-69
2023/08/28 13:40:30;;;;;;;3.67;2.00;;;;;;;;;;7395109;19;20582;-70
2023/08/28 13:42:55;;;;;;;6.20;2.60;;;;;;;;;;7372288;19;20014;-70
2023/08/28 13:45:20;;;;;;;2.70;1.80;;;;;;;;;;7370869;19;20006;-70
2023/08/28 13:47:45;;;;;;;6.38;2.33;;;;;;;;;;7370283;19;20106;-70
2023/08/28 13:50:11;;;;;;;3.50;1.73;;;;;;;;;;7372556;19;20002;-70
2023/08/28 13:52:36;;;;;;;8.73;2.20;;;;;;;;;;7393936;19;20652;-70
2023/08/28 13:55:04;;;;;;;4.75;2.10;;;;;;;;;;7368875;19;20006;-70
2023/08/28 13:57:34;;;;;;;2.63;1.70;;;;;;;;;;7372595;19;20070;-71
2023/08/28 13:59:59;;;;;;;4.20;2.08;;;;;;;;;;7371727;19;19998;-70
2023/08/28 14:02:28;;;;;;;3.63;1.83;;;;;;;;;;7370223;19;20038;-70
2023/08/28 14:04:53;;;;;;;3.88;1.80;;;;;;;;;;7369080;19;20010;-70
2023/08/28 14:07:21;;;;;;;2.60;1.73;;;;;;;;;;7394080;19;19999;-70
2023/08/28 14:09:46;;;;;;;5.03;2.05;;;;;;;;;;7371755;19;20018;-70
2023/08/28 14:12:12;;;;;;;4.32;2.15;;;;;;;;;;7372074;19;20015;-71
2023/08/28 14:14:38;;;;;;;2.55;1.70;;;;;;;;;;7370808;19;20019;-70
2023/08/28 14:17:03;;;;;;;3.00;1.70;;;;;;;;;;7371504;19;20010;-69
2023/08/28 14:19:28;;;;;;;2.85;1.80;;;;;;;;;;7393416;19;20010;-69
2023/08/28 14:21:54;;;;;;;3.38;1.88;;;;;;;;;;7371875;19;20026;-71
2023/08/28 14:24:19;;;;;;;4.07;2.00;;;;;;;;;;7370672;19;20011;-70
2023/08/28 14:26:44;;;;;;;4.40;2.15;;;;;;;;;;7369593;19;20103;-70
2023/08/28 14:29:12;;;;;;;4.30;2.08;;;;;;;;;;7369419;19;20010;-70
2023/08/28 14:31:37;;;;;;;2.97;1.85;;;;;;;;;;7393692;19;20006;-70
2023/08/28 14:34:02;;;;;;;3.10;1.98;;;;;;;;;;7370716;19;20006;-70
2023/08/28 14:36:28;;;;;;;3.65;1.90;;;;;;;;;;7370777;19;20010;-70
2023/08/28 14:38:53;;;;;;;3.83;1.95;;;;;;;;;;7371213;19;20011;-71
2023/08/28 14:41:19;;;;;;;2.63;1.75;;;;;;;;;;7372469;19;20022;-70